createdAt,value
2022-07-27T00:02:48.431Z,16.90
2022-07-27T00:06:54.807Z,16.80
2022-07-27T00:10:59.283Z,16.80
2022-07-27T00:15:02.591Z,16.80
2022-07-27T00:19:09.174Z,16.70
2022-07-27T00:23:20.370Z,16.70
2022-07-27T00:27:23.682Z,16.60
2022-07-27T00:31:27.055Z,16.60
2022-07-27T00:35:31.920Z,16.60
2022-07-27T00:39:35.234Z,16.60
2022-07-27T00:43:54.246Z,16.70
2022-07-27T00:47:57.587Z,16.70
2022-07-27T00:52:02.325Z,16.60
2022-07-27T00:56:06.190Z,16.70
2022-07-27T01:00:11.043Z,16.60
2022-07-27T01:04:14.401Z,16.60
2022-07-27T01:08:19.184Z,16.60
2022-07-27T01:12:32.556Z,16.50
2022-07-27T01:16:36.065Z,16.60
2022-07-27T01:20:40.806Z,16.70
2022-07-27T01:24:45.543Z,16.70
2022-07-27T01:28:49.322Z,16.70
2022-07-27T01:32:52.755Z,16.80
2022-07-27T01:36:56.372Z,16.80
2022-07-27T01:41:01.084Z,16.90
2022-07-27T01:45:04.952Z,16.90
2022-07-27T01:49:08.896Z,16.90
2022-07-27T01:53:12.588Z,17.00
2022-07-27T01:57:17.229Z,17.00
2022-07-27T02:01:20.537Z,17.00
2022-07-27T02:05:24.148Z,17.00
2022-07-27T02:09:27.507Z,17.10
2022-07-27T02:13:32.273Z,17.10
2022-07-27T02:17:36.334Z,17.10
2022-07-27T02:21:39.613Z,17.20
2022-07-27T02:25:42.902Z,17.00
2022-07-27T02:29:47.552Z,17.10
2022-07-27T02:33:50.883Z,17.20
2022-07-27T02:37:54.191Z,17.20
2022-07-27T02:41:57.617Z,17.20
2022-07-27T02:46:02.291Z,17.30
2022-07-27T02:50:06.991Z,17.20
2022-07-27T02:54:10.538Z,17.20
2022-07-27T02:58:13.895Z,17.20
2022-07-27T03:02:18.615Z,17.20
2022-07-27T03:06:21.931Z,17.20
2022-07-27T03:10:25.219Z,17.20
2022-07-27T03:14:28.575Z,17.20
2022-07-27T03:18:33.399Z,17.20
2022-07-27T03:22:36.742Z,17.20
2022-07-27T03:26:40.153Z,17.20
2022-07-27T03:30:44.054Z,17.20
2022-07-27T03:34:48.920Z,17.20
2022-07-27T03:38:52.604Z,17.20
2022-07-27T03:42:56.093Z,17.20
2022-07-27T03:46:59.388Z,17.20
2022-07-27T03:51:04.183Z,17.20
2022-07-27T03:55:08.690Z,17.10
2022-07-27T03:59:12.313Z,17.20
2022-07-27T04:03:16.116Z,17.10
2022-07-27T04:07:21.098Z,17.10
2022-07-27T04:11:24.396Z,17.10
2022-07-27T04:15:32.362Z,17.20
2022-07-27T04:19:35.615Z,17.30
2022-07-27T04:23:40.327Z,17.40
2022-07-27T04:27:43.665Z,17.50
2022-07-27T04:31:46.960Z,17.70
2022-07-27T04:35:50.256Z,17.80
2022-07-27T04:39:58.091Z,17.90
2022-07-27T04:44:01.589Z,18.00
2022-07-27T04:48:07.635Z,18.00
2022-07-27T04:52:10.990Z,18.20
2022-07-27T04:56:15.979Z,18.30
2022-07-27T05:00:22.044Z,18.30
2022-07-27T05:04:25.741Z,18.40
2022-07-27T05:08:30.628Z,18.50
2022-07-27T05:12:35.434Z,18.60
2022-07-27T05:16:42.295Z,18.80
2022-07-27T05:20:45.749Z,18.90
2022-07-27T05:24:49.190Z,18.80
2022-07-27T05:28:53.877Z,19.00
2022-07-27T05:32:57.163Z,19.20
2022-07-27T05:37:00.733Z,19.40
2022-07-27T05:41:04.020Z,19.40
2022-07-27T05:45:10.312Z,19.70
2022-07-27T05:49:13.918Z,19.90
2022-07-27T05:53:17.715Z,20.00
2022-07-27T05:57:21.096Z,20.00
2022-07-27T06:01:25.919Z,20.20
2022-07-27T06:05:30.159Z,20.50
2022-07-27T06:09:33.480Z,20.70
2022-07-27T06:13:37.290Z,21.00
2022-07-27T06:17:49.247Z,21.30
2022-07-27T06:21:53.967Z,21.60
2022-07-27T06:25:58.027Z,21.70
2022-07-27T06:30:01.329Z,21.70
2022-07-27T06:34:06.818Z,22.10
2022-07-27T06:38:15.262Z,22.30
2022-07-27T06:42:18.537Z,22.20
2022-07-27T06:46:22.062Z,22.10
2022-07-27T06:50:27.071Z,21.80
2022-07-27T06:54:33.009Z,21.90
2022-07-27T06:58:37.760Z,21.90
2022-07-27T07:02:52.455Z,22.00
2022-07-27T07:07:05.238Z,22.40
2022-07-27T07:11:14.122Z,22.70
2022-07-27T07:15:18.281Z,22.60
2022-07-27T07:19:21.772Z,22.70
2022-07-27T07:23:26.637Z,23.20
2022-07-27T07:27:30.192Z,22.90
2022-07-27T07:31:33.833Z,23.10
2022-07-27T07:35:37.193Z,23.50
2022-07-27T07:40:18.804Z,23.40
2022-07-27T07:44:26.392Z,23.50
2022-07-27T07:48:34.811Z,23.80
2022-07-27T07:52:38.386Z,24.30
2022-07-27T07:56:43.115Z,24.50
2022-07-27T08:00:46.715Z,25.10
2022-07-27T08:04:50.129Z,25.20
2022-07-27T08:08:53.567Z,25.70
2022-07-27T08:12:59.121Z,25.50
2022-07-27T08:17:02.717Z,26.00
2022-07-27T08:21:06.103Z,25.90
2022-07-27T08:25:10.346Z,25.20
2022-07-27T08:29:16.365Z,24.80
2022-07-27T08:33:20.434Z,25.20
2022-07-27T08:37:23.761Z,24.80
2022-07-27T08:41:28.535Z,24.50
2022-07-27T08:45:33.728Z,24.30
2022-07-27T08:49:43.671Z,24.30
2022-07-27T08:53:53.187Z,24.50
2022-07-27T08:58:02.740Z,24.70
2022-07-27T09:02:12.160Z,24.60
2022-07-27T09:06:35.648Z,24.30
2022-07-27T09:10:39.780Z,23.90
2022-07-27T09:14:43.450Z,24.10
2022-07-27T09:18:49.177Z,24.00
2022-07-27T09:22:53.695Z,24.20
2022-07-27T09:27:04.302Z,24.20
2022-07-27T09:31:08.904Z,24.30
2022-07-27T09:35:22.131Z,24.50
2022-07-27T09:39:27.122Z,24.60
2022-07-27T09:44:20.199Z,25.30
2022-07-27T09:47:54.338Z,25.90
2022-07-27T09:52:01.302Z,26.50
2022-07-27T09:56:07.768Z,27.60
2022-07-27T10:00:13.905Z,27.90
2022-07-27T10:04:18.483Z,28.30
2022-07-27T10:08:23.803Z,27.90
2022-07-27T10:12:30.058Z,28.30
2022-07-27T10:16:35.673Z,28.40
2022-07-27T10:20:47.697Z,27.90
2022-07-27T10:25:00.681Z,27.20
2022-07-27T10:29:06.388Z,26.70
2022-07-27T10:33:17.420Z,26.40
2022-07-27T10:37:27.054Z,26.10
2022-07-27T10:41:34.233Z,26.00
2022-07-27T10:45:50.286Z,25.90
2022-07-27T10:50:29.950Z,26.40
2022-07-27T10:54:38.646Z,26.90
2022-07-27T10:58:52.759Z,26.90
2022-07-27T11:02:58.205Z,27.30
2022-07-27T11:11:28.104Z,26.30
2022-07-27T11:15:33.715Z,25.80
2022-07-27T11:19:37.557Z,25.40
2022-07-27T11:23:51.237Z,25.30
2022-07-27T11:27:55.597Z,25.30
2022-07-27T11:32:01.991Z,25.40
2022-07-27T11:36:08.075Z,25.50
2022-07-27T11:40:42.274Z,25.20
2022-07-27T11:44:39.993Z,24.90
2022-07-27T11:49:07.278Z,24.70
2022-07-27T11:53:11.799Z,24.90
2022-07-27T11:57:18.823Z,25.20
2022-07-27T12:01:28.971Z,25.00
2022-07-27T12:05:33.892Z,24.90
2022-07-27T12:09:39.715Z,24.90
2022-07-27T12:13:43.175Z,25.30
2022-07-27T12:17:47.450Z,25.30
2022-07-27T12:21:57.573Z,25.40
2022-07-27T12:26:19.075Z,25.70
2022-07-27T12:30:31.579Z,25.40
2022-07-27T12:34:37.221Z,25.50
2022-07-27T12:38:50.703Z,25.40
2022-07-27T12:43:00.694Z,25.60
2022-07-27T12:47:22.762Z,25.80
2022-07-27T12:51:30.548Z,25.30
2022-07-27T12:55:36.022Z,25.40
2022-07-27T12:59:39.763Z,25.10
2022-07-27T13:03:43.339Z,25.10
2022-07-27T13:07:47.881Z,24.60
2022-07-27T13:11:58.312Z,24.50
2022-07-27T13:16:03.638Z,24.30
2022-07-27T13:20:09.958Z,24.10
2022-07-27T13:24:13.296Z,24.20
2022-07-27T13:28:18.025Z,24.00
2022-07-27T13:32:24.570Z,24.20
2022-07-27T13:36:28.836Z,24.30
2022-07-27T13:40:32.209Z,24.30
2022-07-27T13:45:02.249Z,24.50
2022-07-27T13:49:00.634Z,24.70
2022-07-27T13:53:03.999Z,24.90
2022-07-27T13:57:07.290Z,25.20
2022-07-27T14:01:12.596Z,25.70
2022-07-27T14:05:20.143Z,25.70
2022-07-27T14:09:43.810Z,25.90
2022-07-27T14:13:47.246Z,25.70
2022-07-27T14:17:51.933Z,25.50
2022-07-27T14:21:55.292Z,25.80
2022-07-27T14:26:00.055Z,25.70
2022-07-27T14:30:03.425Z,25.50
2022-07-27T14:34:08.105Z,25.60
2022-07-27T14:38:11.738Z,25.50
2022-07-27T14:42:15.061Z,25.30
2022-07-27T14:46:18.420Z,25.50
2022-07-27T14:50:23.358Z,24.90
2022-07-27T14:54:26.677Z,24.10
2022-07-27T14:58:30.060Z,23.90
2022-07-27T15:02:34.795Z,23.90
2022-07-27T15:06:39.584Z,24.00
2022-07-27T15:10:44.151Z,24.10
2022-07-27T15:14:47.443Z,23.20
2022-07-27T15:18:50.734Z,22.80
2022-07-27T15:22:55.507Z,22.50
2022-07-27T15:26:58.851Z,22.20
2022-07-27T15:31:02.545Z,22.30
2022-07-27T15:35:06.531Z,22.10
2022-07-27T15:39:11.491Z,22.10
2022-07-27T15:43:17.058Z,21.90
2022-07-27T15:47:20.426Z,21.50
2022-07-27T15:51:23.752Z,21.20
2022-07-27T15:55:28.552Z,20.80
2022-07-27T15:59:31.865Z,20.40
2022-07-27T16:03:35.527Z,19.90
2022-07-27T16:07:41.693Z,19.60
2022-07-27T16:11:47.142Z,19.30
2022-07-27T16:16:08.039Z,19.10
2022-07-27T16:20:13.664Z,18.90
2022-07-27T16:24:17.409Z,18.70
2022-07-27T16:28:22.806Z,18.40
2022-07-27T16:32:26.550Z,18.30
2022-07-27T16:36:32.956Z,18.20
2022-07-27T16:40:39.438Z,18.00
2022-07-27T16:44:44.520Z,18.10
2022-07-27T16:48:48.333Z,18.10
2022-07-27T16:52:51.819Z,18.00
2022-07-27T16:56:56.286Z,18.10
2022-07-27T17:01:01.956Z,18.10
2022-07-27T17:05:06.776Z,18.20
2022-07-27T17:09:11.170Z,18.10
2022-07-27T17:13:14.847Z,18.20
2022-07-27T17:17:20.694Z,18.10
2022-07-27T17:21:24.412Z,18.10
2022-07-27T17:25:31.130Z,18.10
2022-07-27T17:29:34.981Z,18.20
2022-07-27T17:33:40.619Z,18.20
2022-07-27T17:38:04.999Z,18.30
2022-07-27T17:42:09.804Z,18.20
2022-07-27T17:46:14.241Z,18.10
2022-07-27T17:50:19.296Z,18.10
2022-07-27T17:54:37.921Z,18.00
2022-07-27T17:58:43.050Z,18.00
2022-07-27T18:02:46.638Z,18.00
2022-07-27T18:06:52.340Z,17.90
2022-07-27T18:10:55.760Z,17.80
2022-07-27T18:15:18.363Z,17.70
2022-07-27T18:19:22.957Z,17.60
2022-07-27T18:23:28.530Z,17.70
2022-07-27T18:27:32.864Z,17.60
2022-07-27T18:31:37.978Z,17.60
2022-07-27T18:35:41.669Z,17.50
2022-07-27T18:39:50.574Z,17.50
2022-07-27T18:43:54.020Z,17.50
2022-07-27T18:47:57.328Z,17.50
2022-07-27T18:52:03.086Z,17.50
2022-07-27T18:56:13.062Z,17.40
2022-07-27T19:00:17.023Z,17.30
2022-07-27T19:04:26.885Z,17.30
2022-07-27T19:08:32.116Z,17.30
2022-07-27T19:12:37.443Z,17.30
2022-07-27T19:16:40.867Z,17.30
2022-07-27T19:20:46.042Z,17.20
2022-07-27T19:24:54.621Z,17.10
2022-07-27T19:28:59.745Z,17.00
2022-07-27T19:33:04.485Z,16.90
2022-07-27T19:37:08.199Z,16.90
2022-07-27T19:41:13.385Z,16.80
2022-07-27T19:45:28.541Z,16.60
2022-07-27T19:49:36.104Z,16.70
2022-07-27T19:53:44.509Z,16.60
2022-07-27T19:57:48.088Z,16.60
2022-07-27T20:01:52.985Z,16.70
2022-07-27T20:05:57.308Z,16.50
2022-07-27T20:10:03.168Z,16.50
2022-07-27T20:14:06.767Z,16.40
2022-07-27T20:18:13.920Z,16.50
2022-07-27T20:22:17.803Z,16.40
2022-07-27T20:26:24.586Z,16.30
2022-07-27T20:30:28.386Z,16.30
2022-07-27T20:34:33.092Z,16.30
2022-07-27T20:38:36.417Z,16.40
2022-07-27T20:42:42.870Z,16.40
2022-07-27T20:46:46.268Z,16.40
2022-07-27T20:50:51.369Z,16.40
2022-07-27T20:54:54.865Z,16.40
2022-07-27T20:58:58.626Z,16.40
2022-07-27T21:03:02.038Z,16.50
2022-07-27T21:07:06.770Z,16.40
2022-07-27T21:11:10.195Z,16.30
2022-07-27T21:15:13.762Z,16.20
2022-07-27T21:19:19.336Z,16.30
2022-07-27T21:23:41.355Z,16.30
2022-07-27T21:27:44.735Z,16.30
2022-07-27T21:31:50.628Z,16.20
2022-07-27T21:35:53.956Z,16.10
2022-07-27T21:39:59.747Z,16.10
2022-07-27T21:44:03.112Z,16.00
2022-07-27T21:48:07.196Z,15.90
2022-07-27T21:52:11.366Z,15.80
2022-07-27T21:56:16.726Z,15.80
2022-07-27T22:00:24.010Z,15.70
2022-07-27T22:04:28.164Z,15.80
2022-07-27T22:08:31.629Z,15.80
2022-07-27T22:12:36.494Z,15.70
2022-07-27T22:16:39.919Z,15.70
2022-07-27T22:20:43.335Z,15.70
2022-07-27T22:24:46.659Z,15.70
2022-07-27T22:28:51.412Z,15.70
2022-07-27T22:32:54.973Z,15.70
2022-07-27T22:36:58.302Z,15.70
2022-07-27T22:41:01.794Z,15.70
2022-07-27T22:45:08.008Z,15.70
2022-07-27T22:49:11.518Z,15.70
2022-07-27T22:53:16.386Z,15.80
2022-07-27T22:57:19.713Z,15.70
2022-07-27T23:01:45.624Z,15.60
2022-07-27T23:05:47.960Z,15.70
2022-07-27T23:09:51.372Z,15.60
2022-07-27T23:13:54.709Z,15.50
2022-07-27T23:17:59.530Z,15.40
2022-07-27T23:22:02.907Z,15.40
2022-07-27T23:26:06.219Z,15.30
2022-07-27T23:30:10.982Z,15.30
2022-07-27T23:34:15.826Z,15.20
2022-07-27T23:38:19.395Z,15.20
2022-07-27T23:42:22.733Z,15.20
2022-07-27T23:46:26.146Z,15.20
2022-07-27T23:50:30.955Z,15.10
2022-07-27T23:54:34.222Z,15.00
2022-07-27T23:58:37.567Z,15.00
